X  Schlie├čen METAR Luftfahrt Wetterdaten     LDPL Pula Airport
Temperatur
20°C Temperatur
17°C Taupunkt
83% Feuchtigkeit



Wind
5 KM/S
3 MPS
1 M/S
3 KTS



50°
NO
Aktuelle Wetterlage

Klar Klar
Luftdruck 1010.92 (hPa) - 29.85 (inHg)
Sichtweite 6.2 (Meile) - 10 (Km)
Flughafen
Flughafen Code LDPL

Position : Pula Airport
Entfernung: 39 (Km)

Metar:
LDPL 292330Z 05003KT 020V090 CAVOK 20/17 Q1011

Zeit: 30-06-2022 01:30 CEST